Weather observations for the past three days for
Palestine, Palestine Municipal Airport
Imperial (Metric)
Date Time (cdt) Wind (mph) Vis. (mi.) Weather Sky Cond. Temperature (ºF) Relative Humidity Wind Chill (°F) Heat Index (°F) Pressure Precipitation (in)
Air Dwpt 6 hour altimeter (in) sea level (mb) 1 hr 3 hr 6 hr
Max. Min.
05 11:55 S 16 G 24 9.00 Overcast BKN018 OVC023 77 69.8 79% 79 29.78 0.0
05 11:35 S 14 9.00 Overcast BKN017 OVC022 75.2 69.8 83% 75 29.77 0.0
05 11:15 S 17 G 24 9.00 Overcast OVC016 75.2 69.8 83% 75 29.78 0.0
05 10:55 S 9 G 20 9.00 Overcast OVC015 75.2 69.8 83% 75 29.77 0.0
05 10:35 S 14 G 22 9.00 Overcast BKN015 BKN024 OVC030 75.2 68 78% 76 29.77 0.0
05 10:15 S 14 G 23 8.00 Overcast OVC015 73.4 68 83% 29.77 0.0
05 09:55 S 12 9.00 Overcast OVC016 73.4 68 83% 29.77 0.0
05 09:35 S 13 9.00 Overcast OVC017 71.6 68 88% 29.77 0.0
05 09:15 S 10 G 20 9.00 Overcast OVC017 71.6 66.2 83% 29.77 0.0
05 08:55 SW 10 G 24 9.00 Overcast OVC017 71.6 66.2 83% 29.78 0.0
05 08:35 S 13 G 18 9.00 Overcast OVC018 71.6 66.2 83% 29.77 0.0
05 08:15 SW 14 G 20 9.00 Overcast OVC019 71.6 66.2 83% 29.76 0.0
05 07:55 S 14 G 21 9.00 Overcast OVC017 71.6 66.2 83% 29.76 0.0
05 07:35 S 15 9.00 Overcast OVC017 69.8 66.2 88% 29.76 0.0
05 07:15 S 12 G 20 9.00 Overcast OVC015 69.8 66.2 88% 29.75 0.0
05 06:55 SW 18 G 25 9.00 Overcast OVC015 69.8 66.2 88% 29.75 0.0
05 06:35 S 15 G 23 10.00 Overcast OVC016 69.8 66.2 88% 29.74 0.0
05 06:15 S 17 G 25 10.00 Overcast OVC016 69.8 66.2 88% 29.74 0.0
05 05:55 S 10 G 21 10.00 Overcast OVC015 69.8 66.2 88% 29.75 0.0
05 05:35 S 12 10.00 Overcast OVC015 69.8 66.2 88% 29.74 0.0
05 05:15 S 10 G 20 10.00 Overcast OVC015 69.8 66.2 88% 29.74 0.0
05 04:55 S 15 10.00 Overcast OVC014 69.8 66.2 88% 29.74 0.0
05 04:35 S 12 10.00 Overcast OVC015 68 64.4 88% 29.74 0.0
05 04:15 S 13 G 23 10.00 Overcast OVC016 68 64.4 88% 29.74 0.0
05 03:55 S 14 10.00 Overcast OVC016 68 64.4 88% 29.75 0.0
05 03:35 S 13 10.00 Overcast OVC017 68 64.4 88% 29.76 0.0
05 03:15 S 13 G 18 10.00 Overcast OVC018 68 64.4 88% 29.76 0.0
05 02:55 S 10 G 17 10.00 Overcast OVC019 68 64.4 88% 29.77 0.0
05 02:35 S 12 G 20 10.00 Overcast BKN020 OVC028 68 64.4 88% 29.78 0.0
05 02:15 S 10 G 17 10.00 Overcast BKN022 OVC028 68 64.4 88% 29.78 0.0
05 01:55 S 8 G 15 10.00 Overcast BKN023 BKN028 OVC032 68 64.4 88% 29.79 0.0
05 01:35 S 9 10.00 Overcast BKN025 OVC032 68 64.4 88% 29.79 0.0
05 01:15 S 9 G 15 10.00 Overcast BKN027 OVC033 69.8 64.4 83% 29.8 0.0
05 00:55 S 12 G 20 10.00 Overcast SCT026 OVC032 69.8 64.4 83% 29.8 0.0
05 00:35 S 10 G 16 10.00 Overcast BKN032 OVC037 69.8 62.6 78% 29.79 0.0
05 00:15 S 8 G 15 10.00 Mostly Cloudy BKN034 69.8 62.6 78% 29.8 0.0
04 23:55 S 8 10.00 Partly Cloudy FEW032 SCT039 69.8 62.6 78% 29.79 0.0
04 23:35 S 8 G 16 10.00 Partly Cloudy SCT039 69.8 62.6 78% 29.8 0.0
04 23:15 S 8 G 14 10.00 Mostly Cloudy BKN039 69.8 62.6 78% 29.79 0.0
04 22:55 S 7 G 13 10.00 Overcast OVC038 71.6 62.6 73% 29.8 0.0
04 22:35 S 9 10.00 Overcast OVC038 71.6 62.6 73% 29.8 0.0
04 22:15 S 8 10.00 Overcast OVC042 73.4 60.8 65% 29.8 0.0
04 21:55 S 7 G 14 10.00 Overcast OVC042 73.4 60.8 65% 29.8 0.0
04 21:35 S 7 10.00 Overcast OVC043 73.4 60.8 65% 29.79 0.0
04 21:15 Vrbl 8 10.00 Overcast OVC044 73.4 60.8 65% 29.79 0.0
04 20:55 S 9 10.00 Overcast OVC046 73.4 60.8 65% 29.79 0.0
04 20:35 S 8 10.00 Overcast OVC045 73.4 60.8 65% 29.79 0.0
04 20:15 S 8 10.00 Mostly Cloudy BKN045 75.2 60.8 61% 77 29.78 0.0
04 19:55 S 7 G 13 10.00 A Few Clouds FEW046 75.2 60.8 61% 77 29.78 0.0
04 19:35 S 10 G 18 10.00 A Few Clouds FEW045 77 60.8 57% 79 29.78 0.0
04 19:15 S 10 G 17 10.00 Partly Cloudy SCT045 77 59 54% 79 29.79 0.0
04 18:55 S 10 10.00 Fair CLR 77 59 54% 79 29.79 0.0
04 18:35 S 12 G 23 10.00 Fair CLR 77 57.2 51% 79 29.8 0.0
04 18:15 S 12 G 20 10.00 Fair CLR 78.8 59 51% 80 29.8 0.0
04 17:55 S 13 10.00 A Few Clouds FEW047 78.8 57.2 48% 80 29.81 0.0
04 17:35 S 13 G 20 10.00 Fair CLR 80.6 57.2 45% 81 29.82 0.0
04 17:15 S 16 G 24 10.00 Fair CLR 80.6 57.2 45% 81 29.81 0.0
04 16:55 S 10 G 21 10.00 Fair CLR 80.6 57.2 45% 81 29.82 0.0
04 16:35 S 9 G 18 10.00 Fair CLR 80.6 57.2 45% 81 29.83 0.0
04 16:15 S 15 G 21 10.00 A Few Clouds FEW050 80.6 57.2 45% 81 29.84 0.0
04 15:55 S 9 G 20 10.00 A Few Clouds FEW050 80.6 57.2 45% 81 29.86 0.0
04 15:35 S 16 G 22 10.00 Fair CLR 80.6 57.2 45% 81 29.87 0.0
04 15:15 S 12 G 24 10.00 Fair CLR 80.6 57.2 45% 81 29.87 0.0
04 14:55 S 12 G 22 10.00 Fair CLR 80.6 57.2 45% 81 29.89 0.0
04 14:35 S 15 G 21 10.00 Fair CLR 78.8 55.4 45% 79 29.9 0.0
04 14:15 S 15 10.00 Fair CLR 78.8 55.4 45% 79 29.91 0.0
04 13:55 S 10 G 20 10.00 Fair CLR 78.8 55.4 45% 79 29.91 0.0
04 13:35 SW 13 G 20 10.00 Fair CLR 78.8 53.6 42% 79 29.92 0.0
04 13:15 S 13 G 20 10.00 Fair CLR 77 51.8 42% 78 29.93 0.0
04 12:55 S 9 G 24 10.00 Fair CLR 77 53.6 44% 78 29.94 0.0
04 12:35 S 15 G 24 10.00 Fair CLR 77 51.8 42% 78 29.95 0.0
04 12:15 S 13 G 20 10.00 Fair CLR 75.2 51.8 44% 78 29.96 0.0
04 11:55 S 13 10.00 Fair CLR 75.2 51.8 44% 78 29.97 0.0
04 11:35 S 15 G 24 10.00 Fair CLR 73.4 51.8 47% 29.97 0.0
04 11:15 S 10 G 17 10.00 Fair CLR 73.4 51.8 47% 29.97 0.0
04 10:55 S 12 G 22 10.00 Fair CLR 71.6 51.8 50% 29.98 0.0
04 10:35 S 17 G 25 10.00 Fair CLR 71.6 51.8 50% 29.98 0.0
04 10:15 S 14 G 21 10.00 Fair CLR 69.8 53.6 57% 29.99 0.0
04 09:55 S 13 10.00 Fair CLR 68 53.6 60% 30 0.0
04 09:35 S 14 10.00 Fair CLR 68 51.8 56% 30 0.0
04 09:15 S 13 G 18 10.00 Fair CLR 66.2 51.8 60% 30 0.0
04 08:55 S 10 G 20 10.00 Fair CLR 64.4 51.8 64% 30 0.0
04 08:35 S 9 G 16 10.00 Fair CLR 62.6 51.8 68% 30 0.0
04 08:15 S 8 10.00 Fair CLR 60.8 53.6 77% 30 0.0
04 07:55 S 6 10.00 Fair CLR 59 53.6 82% 29.99 0.0
04 07:35 SE 6 10.00 Fair CLR 57.2 53.6 88% 29.99 0.0
04 07:15 SE 5 10.00 Fair CLR 55.4 51.8 88% 29.99 0.0
04 06:55 Calm 10.00 Fair CLR 55.4 51.8 88% 29.98 0.0
04 06:35 SE 3 10.00 Fair CLR 55.4 51.8 88% 29.98 0.0
04 06:15 SE 5 10.00 Fair CLR 55.4 51.8 88% 29.98 0.0
04 05:55 Calm 10.00 Fair CLR 55.4 51.8 88% 29.97 0.0
04 05:35 SE 3 10.00 Fair CLR 55.4 51.8 88% 29.98 0.0
04 05:15 SE 5 10.00 Fair CLR 55.4 51.8 88% 29.98 0.0
04 04:55 SE 5 10.00 Fair CLR 55.4 51.8 88% 29.99 0.0
04 04:15 SE 5 10.00 Fair CLR 57.2 51.8 82% 30 0.0
04 03:55 S 5 10.00 Fair CLR 57.2 51.8 82% 29.99 0.0
04 03:35 S 5 10.00 Fair CLR 57.2 51.8 82% 30 0.0
04 03:15 S 3 10.00 Fair CLR 59 51.8 77% 30 0.0
04 02:55 S 6 10.00 Fair CLR 59 51.8 77% 30 0.0
04 02:35 S 6 10.00 Fair CLR 59 51.8 77% 30 0.0
04 02:15 S 7 10.00 Fair CLR 60.8 51.8 72% 30.01 0.0
04 01:55 S 7 10.00 Fair CLR 60.8 51.8 72% 30.02 0.0
04 01:35 S 6 10.00 Fair CLR 59 51.8 77% 30.04 0.0
04 01:15 S 6 10.00 Fair CLR 59 51.8 77% 30.04 0.0
04 00:55 S 5 10.00 Fair CLR 59 51.8 77% 30.04 0.0
04 00:35 SE 5 10.00 Fair CLR 59 53.6 82% 30.04 0.0
04 00:15 SE 5 10.00 Fair CLR 59 51.8 77% 30.05 0.0
03 23:55 SE 5 10.00 Fair CLR 57.2 53.6 88% 30.05 0.0
03 23:35 SE 3 10.00 Fair CLR 59 55.4 88% 30.05 0.0
03 23:15 SE 3 10.00 Fair CLR 59 55.4 88% 30.04 0.0
03 22:55 SE 5 10.00 Fair CLR 59 53.6 82% 30.05 0.0
03 22:35 S 5 10.00 Fair CLR 62.6 51.8 68% 30.05 0.0
03 22:15 Calm 10.00 Fair CLR 60.8 53.6 77% 30.05 0.0
03 21:55 Calm 10.00 Fair CLR 60.8 55.4 83% 30.05 0.0
03 21:35 Calm 10.00 Fair CLR 60.8 55.4 83% 30.05 0.0
03 21:15 Calm 10.00 Fair CLR 62.6 55.4 77% 30.04 0.0
03 20:55 Calm 10.00 Fair CLR 64.4 53.6 68% 30.04 0.0
03 20:35 Calm 10.00 Fair CLR 68 50 53% 30.04 0.0
03 20:15 Calm 10.00 Fair CLR 69.8 50 50% 30.03 0.0
03 19:55 S 5 10.00 Fair CLR 71.6 48.2 44% 30.03 0.0
03 19:35 SE 5 10.00 Fair CLR 73.4 48.2 41% 30.03 0.0
03 19:15 S 5 10.00 Fair CLR 75.2 48.2 39% 77 30.04 0.0
03 18:55 S 8 G 15 10.00 Fair CLR 77 48.2 36% 78 30.04 0.0
03 18:35 S 8 G 17 10.00 Fair CLR 77 46.4 34% 78 30.04 0.0
03 18:15 S 12 10.00 Fair CLR 78.8 46.4 32% 79 30.04 0.0
03 17:55 S 10 10.00 A Few Clouds FEW070 78.8 46.4 32% 79 30.04 0.0
03 17:35 S 9 10.00 Partly Cloudy SCT070 78.8 46.4 32% 79 30.05 0.0
03 17:15 SW 9 10.00 Partly Cloudy SCT070 80.6 46.4 30% 80 30.05 0.0
03 16:55 Vrbl 6 G 12 10.00 Fair CLR 78.8 44.6 30% 79 30.06 0.0
03 16:35 SW 10 10.00 Fair CLR 78.8 44.6 30% 79 30.07 0.0
03 16:15 S 6 G 13 10.00 Fair CLR 80.6 44.6 28% 79 30.08 0.0
03 15:55 Vrbl 6 10.00 Fair CLR 78.8 42.8 28% 78 30.09 0.0
03 15:35 SW 3 G 15 10.00 Fair CLR 78.8 44.6 30% 79 30.1 0.0
03 15:15 Vrbl 7 G 15 10.00 Fair CLR 78.8 46.4 32% 79 30.11 0.0
03 14:55 SW 9 G 16 10.00 A Few Clouds FEW070 78.8 46.4 32% 79 30.12 0.0
03 14:35 Vrbl 7 10.00 A Few Clouds FEW075 78.8 46.4 32% 79 30.13 0.0
03 14:15 SW 12 9.00 Fair CLR 78.8 44.6 30% 79 30.14 0.0
03 13:35 W 6 G 17 9.00 Fair CLR 77 46.4 34% 78 30.16 0.0
03 13:15 SW 12 10.00 Fair CLR 77 46.4 34% 78 30.17 0.0
03 12:55 S 7 G 15 10.00 Fair CLR 77 46.4 34% 78 30.18 0.0
03 12:35 SW 10 10.00 Fair CLR 77 46.4 34% 78 30.19 0.0
03 12:15 S 8 G 15 10.00 Fair CLR 75.2 48.2 39% 77 30.2 0.0
03 11:55 SW 10 10.00 Fair CLR 75.2 48.2 39% 77 30.2 0.0
03 11:35 SW 12 10.00 Fair CLR 73.4 48.2 41% 30.21 0.0
03 11:15 SW 10 9.00 Light Rain CLR 73.4 50 44% 30.21 0.0
03 10:55 W 10 8.00 Light Rain CLR 71.6 51.8 50% 30.21 0.0
03 10:35 SW 9 10.00 Fair CLR 71.6 51.8 50% 30.22 0.0
03 10:15 SW 9 10.00 Fair CLR 69.8 51.8 53% 30.21 0.0
03 09:55 SW 6 10.00 Fair CLR 68 53.6 60% 30.21 0.0
03 09:35 SW 7 10.00 Fair CLR 66.2 51.8 60% 30.21 0.0
03 09:15 Vrbl 6 10.00 Fair CLR 64.4 51.8 64% 30.21 0.0
03 08:55 S 3 10.00 Fair CLR 62.6 53.6 73% 30.2 0.0
03 08:35 Calm 10.00 Fair CLR 59 51.8 77% 30.2 0.0
03 08:15 S 3 10.00 Fair CLR 57.2 51.8 82% 30.2 0.0
03 07:35 Calm 9.00 Fair CLR 51.8 51.8 100% 30.18 0.0
03 07:15 Calm 9.00 Fair CLR 50 50 100% 30.18 0.0
03 06:55 Calm 8.00 Fair CLR 48.2 48.2 100% 30.17 0.0
03 06:35 Calm 9.00 Fair CLR 48.2 48.2 100% 30.17 0.0
03 06:15 Calm 10.00 Fair CLR 48.2 48.2 100% 30.16 0.0
03 05:55 Calm 10.00 Fair CLR 48.2 48.2 100% 30.15 0.0
03 05:35 Calm 10.00 Fair CLR 48.2 48.2 100% 30.15 0.0
03 05:15 Calm 10.00 Fair CLR 50 50 100% 30.14 0.0
03 04:55 Calm 10.00 Fair CLR 50 50 100% 30.14 0.0
03 04:35 Calm 10.00 Fair CLR 50 50 100% 30.14 0.0
03 04:15 Calm 10.00 Fair CLR 50 50 100% 30.14 0.0
03 03:55 Calm 10.00 Fair CLR 50 50 100% 30.13 0.0
03 03:35 Calm 9.00 Fair CLR 50 50 100% 30.13 0.0
03 03:15 Calm 10.00 Fair CLR 50 50 100% 30.13 0.0
03 02:55 Calm 10.00 Fair CLR 50 50 100% 30.14 0.0
03 02:35 Calm 3.00 Fog/Mist CLR 50 50 100% 30.14 0.0
03 02:15 Calm 9.00 Fair CLR 50 50 100% 30.15 0.0
03 01:55 E 3 9.00 Fair CLR 50 50 100% 30.15 0.0
03 01:35 Calm 10.00 Fair CLR 51.8 50 94% 30.15 0.0
03 01:15 Calm 10.00 Fair CLR 51.8 51.8 100% 30.16 0.0
03 00:55 Calm 10.00 Fair CLR 51.8 51.8 100% 30.15 0.0
03 00:35 Calm 9.00 Fair CLR 51.8 51.8 100% 30.15 0.0
03 00:15 E 3 10.00 Fair CLR 51.8 51.8 100% 30.14 0.0
02 23:55 Calm 10.00 Fair CLR 53.6 53.6 100% 30.15 0.0
02 23:35 Calm 10.00 Fair CLR 53.6 53.6 100% 30.14 0.0
02 23:15 Calm 10.00 Fair CLR 53.6 53.6 100% 30.15 0.0
02 22:55 Calm 10.00 Fair CLR 55.4 53.6 94% 30.15 0.0
02 22:35 Calm 10.00 Fair CLR 55.4 53.6 94% 30.14 0.0
02 22:15 Calm 10.00 Fair CLR 55.4 53.6 94% 30.14 0.0
02 21:55 Calm 10.00 Fair CLR 57.2 53.6 88% 30.14 0.0
02 21:35 Calm 10.00 Fair CLR 57.2 53.6 88% 30.13 0.0
02 21:15 Calm 10.00 Fair CLR 59 53.6 82% 30.12 0.0
02 20:55 NW 5 10.00 Fair CLR 59 53.6 82% 30.12 0.0
02 20:35 Calm 10.00 Fair CLR 60.8 55.4 83% 30.11 0.0
02 20:15 Calm 10.00 Fair CLR 62.6 53.6 73% 30.11 0.0
02 19:55 Calm 10.00 Fair CLR 66.2 53.6 64% 30.1 0.0
02 19:35 Calm 10.00 Fair CLR 69.8 48.2 46% 30.1 0.0
02 19:15 N 6 10.00 Fair CLR 71.6 46.4 41% 30.09 0.0
02 18:35 N 6 10.00 Fair CLR 73.4 41 31% 30.09 0.0
02 18:15 N 7 10.00 Fair CLR 75.2 39.2 27% 77 30.09 0.0
02 17:55 N 9 10.00 Fair CLR 75.2 39.2 27% 77 30.09 0.0
02 17:35 N 13 10.00 Fair CLR 75.2 39.2 27% 77 30.09 0.0
02 17:15 N 7 G 17 10.00 Fair CLR 75.2 39.2 27% 77 30.1 0.0
02 16:55 NW 9 G 18 10.00 Fair CLR 75.2 39.2 27% 77 30.1 0.0
02 16:35 NE 8 G 18 10.00 Fair CLR 75.2 41 29% 77 30.1 0.0
02 16:15 NE 8 G 16 10.00 Fair CLR 75.2 42.8 31% 77 30.1 0.0
02 15:55 N 9 10.00 Fair CLR 75.2 41 29% 77 30.11 0.0
02 15:35 NE 8 10.00 Fair CLR 75.2 42.8 31% 77 30.11 0.0
02 15:15 N 12 10.00 Fair CLR 75.2 41 29% 77 30.12 0.0
02 14:55 N 10 G 17 10.00 Fair CLR 75.2 44.6 34% 77 30.12 0.0
02 14:35 N 8 G 18 10.00 Fair CLR 73.4 42.8 33% 30.13 0.0
02 14:15 N 9 10.00 Fair CLR 73.4 44.6 36% 30.14 0.0
02 13:55 N 8 10.00 Fair CLR 73.4 46.4 38% 30.14 0.0
02 13:35 NE 3 10.00 Fair CLR 71.6 48.2 44% 30.15 0.0
02 13:15 N 9 10.00 A Few Clouds FEW050 71.6 50 47% 30.16 0.0
02 12:55 Vrbl 3 10.00 Fair CLR 69.8 50 50% 30.17 0.0
02 12:35 Calm 10.00 Fair CLR 69.8 51.8 53% 30.18 0.0
Date Time (cdt) Wind (mph) Vis. (mi.) Weather Sky Cond. Air Dwpt Max. Min. Relative Humidity Wind Chill (°F) Heat Index (°F) altimeter (in) sea level (mb) 1 hr 3 hr 6 hr
6 hour
Temperature (ºF) Pressure Precipitation (in)